Mississippi Enterprise — WDE2542 — position and weather

sailwx.info

Track history (hours):
 
Tides and Currents Weather Stations Pressure Air Temp Water Temp Dewpoint Dewpoint Depression Visibility Wind Speed Wind Dir Waves Ship Positions

Mississippi Enterprise

Owner: U.S. United Ocean Services, LLC, Tampa, FL. More information available from US FCC via Universal Licensing System and Coast Guard Vessel Documentation Center.

Last reported at 2015-Jan-23 19:24 UTC. Time now 2015-Jan-27 03:28 UTC.
Position N 29°55' W 090°08'.

Length 187 m; draft 9.1 m.

Type: Cargo ship. MMSI: 369813000.

Date/timePositionNaut miles runAvg speedWind from/ knotsBaromVisibWave heightAir tempDewpointWater temp
2015-Jan-23 19:24N 29°55' W 090°08'6 7.2
2015-Jan-23 18:32N 29°57' W 090°01'41410.9
2015-Jan-22 04:22N 27°41' W 082°35'810.3
2015-Jan-22 03:33N 27°48' W 082°30'8 8.0
2015-Jan-22 02:32N 27°55' W 082°25'0 0.0
2015-Jan-22 01:32N 27°55' W 082°25'0 0.0
2015-Jan-22 00:32N 27°55' W 082°25'0 0.0
2015-Jan-21 23:32N 27°55' W 082°25'0 0.0
2015-Jan-21 22:50N 27°55' W 082°25'0 0.0
2015-Jan-21 22:41N 27°55' W 082°25'0 0.0
2015-Jan-21 22:29N 27°55' W 082°25'0 0.0
2015-Jan-21 21:32N 27°55' W 082°25'0 0.0
2015-Jan-21 20:32N 27°55' W 082°25'0 0.0
2015-Jan-21 19:32N 27°55' W 082°25'0 0.0
2015-Jan-21 18:32N 27°55' W 082°25'0 0.0
2015-Jan-21 17:32N 27°55' W 082°25'0 0.0
2015-Jan-21 16:32N 27°55' W 082°25'0 0.0
2015-Jan-21 15:32N 27°55' W 082°25'0 0.0
2015-Jan-21 14:32N 27°55' W 082°25'0 0.0
2015-Jan-21 13:32N 27°55' W 082°25'0 0.0
2015-Jan-21 12:32N 27°55' W 082°25'0 0.0
2015-Jan-21 11:32N 27°55' W 082°25'0 0.0
2015-Jan-21 10:32N 27°55' W 082°25'0 0.0
2015-Jan-21 09:32N 27°55' W 082°25'0 0.0
2015-Jan-21 08:32N 27°55' W 082°25'0 0.0
2015-Jan-21 07:32N 27°55' W 082°25'0 0.0
2015-Jan-21 06:32N 27°55' W 082°25'0 0.0
2015-Jan-21 05:32N 27°55' W 082°25'0 0.0
2015-Jan-21 04:32N 27°55' W 082°25'0 0.0
2015-Jan-21 03:32N 27°55' W 082°25'0 0.0
2015-Jan-21 02:32N 27°55' W 082°25'0 0.0
2015-Jan-21 01:32N 27°55' W 082°25'0 0.0
2015-Jan-21 00:32N 27°55' W 082°25'0 0.0
2015-Jan-20 23:32N 27°55' W 082°25'0 0.0
2015-Jan-20 22:32N 27°55' W 082°25'0 0.0
2015-Jan-20 21:32N 27°55' W 082°25'0 0.0
2015-Jan-20 20:29N 27°55' W 082°25'0 0.0
2015-Jan-20 19:29N 27°55' W 082°25'0 0.0
2015-Jan-20 18:32N 27°55' W 082°25'0 0.0
2015-Jan-20 17:32N 27°55' W 082°25'0 0.0
2015-Jan-20 16:32N 27°55' W 082°25'0 0.0
2015-Jan-20 15:32N 27°55' W 082°25'0 0.0
2015-Jan-20 14:32N 27°55' W 082°25'0 0.0
2015-Jan-20 13:29N 27°55' W 082°25'0 0.0
2015-Jan-20 12:32N 27°55' W 082°25'0 0.0
2015-Jan-20 11:32N 27°55' W 082°25'0 0.0
2015-Jan-20 10:29N 27°55' W 082°25'0 0.0
2015-Jan-20 09:32N 27°55' W 082°25'0 0.0
2015-Jan-20 08:29N 27°55' W 082°25'0 0.0
2015-Jan-20 07:29N 27°55' W 082°25'0 0.0
2015-Jan-20 06:29N 27°55' W 082°25'0 0.0
2015-Jan-20 05:29N 27°55' W 082°25'0 0.0
2015-Jan-20 04:29N 27°55' W 082°25'0 0.0
2015-Jan-20 03:26N 27°55' W 082°25'0 0.0
2015-Jan-20 02:23N 27°55' W 082°25'0 0.0
2015-Jan-20 01:29N 27°55' W 082°25'0 0.0
2015-Jan-20 00:32N 27°55' W 082°25'0 0.0
2015-Jan-19 23:33N 27°55' W 082°25'6 6.1
2015-Jan-19 22:33N 27°49' W 082°27'2 2.2
2015-Jan-19 21:32N 27°48' W 082°25'0 0.0
2015-Jan-19 20:32N 27°48' W 082°25'0 0.0
2015-Jan-19 19:32N 27°48' W 082°25'0 0.0
2015-Jan-19 17:32N 27°48' W 082°25'0 0.0
2015-Jan-19 16:32N 27°48' W 082°25'0 0.0
2015-Jan-19 15:32N 27°48' W 082°25'0 0.0
2015-Jan-19 14:32N 27°48' W 082°25'0 0.0
2015-Jan-19 13:26N 27°48' W 082°25'0 0.0
2015-Jan-19 12:32N 27°48' W 082°25'0 0.0
2015-Jan-19 11:32N 27°48' W 082°25'0 0.0
2015-Jan-19 10:32N 27°48' W 082°25'0 0.0
2015-Jan-19 09:32N 27°48' W 082°25'0 0.0
2015-Jan-19 08:29N 27°48' W 082°25'0 0.0
2015-Jan-19 07:29N 27°48' W 082°25'0 0.0
2015-Jan-19 06:32N 27°48' W 082°25'0 0.0
2015-Jan-19 05:32N 27°48' W 082°25'0 0.0
2015-Jan-19 04:32N 27°48' W 082°25'0 0.0
2015-Jan-19 03:32N 27°48' W 082°25'0 0.0
2015-Jan-19 02:32N 27°48' W 082°25'0 0.0
2015-Jan-19 01:29N 27°48' W 082°25'0 0.0
2015-Jan-19 00:32N 27°48' W 082°25'0 0.0
2015-Jan-18 23:29N 27°48' W 082°25'0 0.0
2015-Jan-18 22:29N 27°48' W 082°25'0 0.0
2015-Jan-18 21:32N 27°48' W 082°25'0 0.0
2015-Jan-18 20:32N 27°48' W 082°25'0 0.0
2015-Jan-18 19:29N 27°48' W 082°25'0 0.0
2015-Jan-18 18:32N 27°48' W 082°25'0 0.0
2015-Jan-18 17:29N 27°48' W 082°25'0 0.0
2015-Jan-18 16:32N 27°48' W 082°25'0 0.0
2015-Jan-18 15:32N 27°48' W 082°25'0 0.0
2015-Jan-18 14:32N 27°48' W 082°25'0 0.0
2015-Jan-18 13:26N 27°48' W 082°25'0 0.0
2015-Jan-18 12:32N 27°48' W 082°25'0 0.0
2015-Jan-18 11:23N 27°48' W 082°25'0 0.0
2015-Jan-18 10:32N 27°48' W 082°25'0 0.0
2015-Jan-18 09:32N 27°48' W 082°25'0 0.0
2015-Jan-18 08:32N 27°48' W 082°25'0 0.0
2015-Jan-18 07:29N 27°48' W 082°25'0 0.0
2015-Jan-18 06:32N 27°48' W 082°25'0 0.0
2015-Jan-18 05:32N 27°48' W 082°25'0 0.0
2015-Jan-18 04:32N 27°48' W 082°25'0 0.0
2015-Jan-18 03:32N 27°48' W 082°25'0 0.0
2015-Jan-18 02:26N 27°48' W 082°25'0 0.0
2015-Jan-18 01:32N 27°48' W 082°25'0 0.0
2015-Jan-18 00:32N 27°48' W 082°25'0 0.0
2015-Jan-17 23:29N 27°48' W 082°25'0 0.0
2015-Jan-17 22:29N 27°48' W 082°25'0 0.0
2015-Jan-17 21:32N 27°48' W 082°25'0 0.0
2015-Jan-17 20:32N 27°48' W 082°25'0 0.0
2015-Jan-17 19:32N 27°48' W 082°25'0 0.0
2015-Jan-17 18:32N 27°48' W 082°25'0 0.0
2015-Jan-17 17:11N 27°48' W 082°25'0 0.0
2015-Jan-17 16:23N 27°48' W 082°25'0 0.0
2015-Jan-17 15:32N 27°48' W 082°25'0 0.0
2015-Jan-17 14:32N 27°48' W 082°25'0 0.0
2015-Jan-17 13:32N 27°48' W 082°25'0 0.0
2015-Jan-17 12:32N 27°48' W 082°25'0 0.0
2015-Jan-17 11:28N 27°48' W 082°25'0 0.0
2015-Jan-17 10:31N 27°48' W 082°25'0 0.0
2015-Jan-17 09:32N 27°48' W 082°25'0 0.0
2015-Jan-17 08:29N 27°48' W 082°25'0 0.0
2015-Jan-17 07:31N 27°48' W 082°25'0 0.0
2015-Jan-17 06:32N 27°48' W 082°25'0 0.0
2015-Jan-17 05:29N 27°48' W 082°25'0 0.0
2015-Jan-17 04:31N 27°48' W 082°25'0 0.0
2015-Jan-17 03:28N 27°48' W 082°25'0 0.0
2015-Jan-17 02:28N 27°48' W 082°25'0 0.0
2015-Jan-17 01:31N 27°48' W 082°25'0 0.0
2015-Jan-17 00:28N 27°48' W 082°25'0 0.0
2015-Jan-16 23:28N 27°48' W 082°25'1 0.7
2015-Jan-16 22:33N 27°48' W 082°25'4 3.9
2015-Jan-16 21:33N 27°48' W 082°29'9 8.3
2015-Jan-16 20:27N 27°40' W 082°35'19 1.2
2015-Jan-16 04:19N 27°37' W 082°56'4 0.4
2015-Jan-15 19:21N 27°36' W 083°00'  
Track history (hours):
 
Tides and Currents Weather Stations Pressure Air Temp Water Temp Dewpoint Dewpoint Depression Visibility Wind Speed Wind Dir Waves Ship Positions

Mississippi Enterprise

Owner: U.S. United Ocean Services, LLC, Tampa, FL. More information available from US FCC via Universal Licensing System and Coast Guard Vessel Documentation Center.

Last reported at 2015-Jan-23 19:24 UTC. Time now 2015-Jan-27 03:28 UTC.
Position N 29°55' W 090°08'.

Length 187 m; draft 9.1 m.

Type: Cargo ship. MMSI: 369813000.

Date/timePositionNaut miles runAvg speedWind from/ knotsBaromVisibWave heightAir tempDewpointWater temp
2015-Jan-23 19:24N 29°55' W 090°08'6 7.2
2015-Jan-23 18:32N 29°57' W 090°01'41410.9
2015-Jan-22 04:22N 27°41' W 082°35'810.3
2015-Jan-22 03:33N 27°48' W 082°30'8 8.0
2015-Jan-22 02:32N 27°55' W 082°25'0 0.0
2015-Jan-22 01:32N 27°55' W 082°25'0 0.0
2015-Jan-22 00:32N 27°55' W 082°25'0 0.0
2015-Jan-21 23:32N 27°55' W 082°25'0 0.0
2015-Jan-21 22:50N 27°55' W 082°25'0 0.0
2015-Jan-21 22:41N 27°55' W 082°25'0 0.0
2015-Jan-21 22:29N 27°55' W 082°25'0 0.0
2015-Jan-21 21:32N 27°55' W 082°25'0 0.0
2015-Jan-21 20:32N 27°55' W 082°25'0 0.0
2015-Jan-21 19:32N 27°55' W 082°25'0 0.0
2015-Jan-21 18:32N 27°55' W 082°25'0 0.0
2015-Jan-21 17:32N 27°55' W 082°25'0 0.0
2015-Jan-21 16:32N 27°55' W 082°25'0 0.0
2015-Jan-21 15:32N 27°55' W 082°25'0 0.0
2015-Jan-21 14:32N 27°55' W 082°25'0 0.0
2015-Jan-21 13:32N 27°55' W 082°25'0 0.0
2015-Jan-21 12:32N 27°55' W 082°25'0 0.0
2015-Jan-21 11:32N 27°55' W 082°25'0 0.0
2015-Jan-21 10:32N 27°55' W 082°25'0 0.0
2015-Jan-21 09:32N 27°55' W 082°25'0 0.0
2015-Jan-21 08:32N 27°55' W 082°25'0 0.0
2015-Jan-21 07:32N 27°55' W 082°25'0 0.0
2015-Jan-21 06:32N 27°55' W 082°25'0 0.0
2015-Jan-21 05:32N 27°55' W 082°25'0 0.0
2015-Jan-21 04:32N 27°55' W 082°25'0 0.0
2015-Jan-21 03:32N 27°55' W 082°25'0 0.0
2015-Jan-21 02:32N 27°55' W 082°25'0 0.0
2015-Jan-21 01:32N 27°55' W 082°25'0 0.0
2015-Jan-21 00:32N 27°55' W 082°25'0 0.0
2015-Jan-20 23:32N 27°55' W 082°25'0 0.0
2015-Jan-20 22:32N 27°55' W 082°25'0 0.0
2015-Jan-20 21:32N 27°55' W 082°25'0 0.0
2015-Jan-20 20:29N 27°55' W 082°25'0 0.0
2015-Jan-20 19:29N 27°55' W 082°25'0 0.0
2015-Jan-20 18:32N 27°55' W 082°25'0 0.0
2015-Jan-20 17:32N 27°55' W 082°25'0 0.0
2015-Jan-20 16:32N 27°55' W 082°25'0 0.0
2015-Jan-20 15:32N 27°55' W 082°25'0 0.0
2015-Jan-20 14:32N 27°55' W 082°25'0 0.0
2015-Jan-20 13:29N 27°55' W 082°25'0 0.0
2015-Jan-20 12:32N 27°55' W 082°25'0 0.0
2015-Jan-20 11:32N 27°55' W 082°25'0 0.0
2015-Jan-20 10:29N 27°55' W 082°25'0 0.0
2015-Jan-20 09:32N 27°55' W 082°25'0 0.0
2015-Jan-20 08:29N 27°55' W 082°25'0 0.0
2015-Jan-20 07:29N 27°55' W 082°25'0 0.0
2015-Jan-20 06:29N 27°55' W 082°25'0 0.0
2015-Jan-20 05:29N 27°55' W 082°25'0 0.0
2015-Jan-20 04:29N 27°55' W 082°25'0 0.0
2015-Jan-20 03:26N 27°55' W 082°25'0 0.0
2015-Jan-20 02:23N 27°55' W 082°25'0 0.0
2015-Jan-20 01:29N 27°55' W 082°25'0 0.0
2015-Jan-20 00:32N 27°55' W 082°25'0 0.0
2015-Jan-19 23:33N 27°55' W 082°25'6 6.1
2015-Jan-19 22:33N 27°49' W 082°27'2 2.2
2015-Jan-19 21:32N 27°48' W 082°25'0 0.0
2015-Jan-19 20:32N 27°48' W 082°25'0 0.0
2015-Jan-19 19:32N 27°48' W 082°25'0 0.0
2015-Jan-19 17:32N 27°48' W 082°25'0 0.0
2015-Jan-19 16:32N 27°48' W 082°25'0 0.0
2015-Jan-19 15:32N 27°48' W 082°25'0 0.0
2015-Jan-19 14:32N 27°48' W 082°25'0 0.0
2015-Jan-19 13:26N 27°48' W 082°25'0 0.0
2015-Jan-19 12:32N 27°48' W 082°25'0 0.0
2015-Jan-19 11:32N 27°48' W 082°25'0 0.0
2015-Jan-19 10:32N 27°48' W 082°25'0 0.0
2015-Jan-19 09:32N 27°48' W 082°25'0 0.0
2015-Jan-19 08:29N 27°48' W 082°25'0 0.0
2015-Jan-19 07:29N 27°48' W 082°25'0 0.0
2015-Jan-19 06:32N 27°48' W 082°25'0 0.0
2015-Jan-19 05:32N 27°48' W 082°25'0 0.0
2015-Jan-19 04:32N 27°48' W 082°25'0 0.0
2015-Jan-19 03:32N 27°48' W 082°25'0 0.0
2015-Jan-19 02:32N 27°48' W 082°25'0 0.0
2015-Jan-19 01:29N 27°48' W 082°25'0 0.0
2015-Jan-19 00:32N 27°48' W 082°25'0 0.0
2015-Jan-18 23:29N 27°48' W 082°25'0 0.0
2015-Jan-18 22:29N 27°48' W 082°25'0 0.0
2015-Jan-18 21:32N 27°48' W 082°25'0 0.0
2015-Jan-18 20:32N 27°48' W 082°25'0 0.0
2015-Jan-18 19:29N 27°48' W 082°25'0 0.0
2015-Jan-18 18:32N 27°48' W 082°25'0 0.0
2015-Jan-18 17:29N 27°48' W 082°25'0 0.0
2015-Jan-18 16:32N 27°48' W 082°25'0 0.0
2015-Jan-18 15:32N 27°48' W 082°25'0 0.0
2015-Jan-18 14:32N 27°48' W 082°25'0 0.0
2015-Jan-18 13:26N 27°48' W 082°25'0 0.0
2015-Jan-18 12:32N 27°48' W 082°25'0 0.0
2015-Jan-18 11:23N 27°48' W 082°25'0 0.0
2015-Jan-18 10:32N 27°48' W 082°25'0 0.0
2015-Jan-18 09:32N 27°48' W 082°25'0 0.0
2015-Jan-18 08:32N 27°48' W 082°25'0 0.0
2015-Jan-18 07:29N 27°48' W 082°25'0 0.0
2015-Jan-18 06:32N 27°48' W 082°25'0 0.0
2015-Jan-18 05:32N 27°48' W 082°25'0 0.0
2015-Jan-18 04:32N 27°48' W 082°25'0 0.0
2015-Jan-18 03:32N 27°48' W 082°25'0 0.0
2015-Jan-18 02:26N 27°48' W 082°25'0 0.0
2015-Jan-18 01:32N 27°48' W 082°25'0 0.0
2015-Jan-18 00:32N 27°48' W 082°25'0 0.0
2015-Jan-17 23:29N 27°48' W 082°25'0 0.0
2015-Jan-17 22:29N 27°48' W 082°25'0 0.0
2015-Jan-17 21:32N 27°48' W 082°25'0 0.0
2015-Jan-17 20:32N 27°48' W 082°25'0 0.0
2015-Jan-17 19:32N 27°48' W 082°25'0 0.0
2015-Jan-17 18:32N 27°48' W 082°25'0 0.0
2015-Jan-17 17:11N 27°48' W 082°25'0 0.0
2015-Jan-17 16:23N 27°48' W 082°25'0 0.0
2015-Jan-17 15:32N 27°48' W 082°25'0 0.0
2015-Jan-17 14:32N 27°48' W 082°25'0 0.0
2015-Jan-17 13:32N 27°48' W 082°25'0 0.0
2015-Jan-17 12:32N 27°48' W 082°25'0 0.0
2015-Jan-17 11:28N 27°48' W 082°25'0 0.0
2015-Jan-17 10:31N 27°48' W 082°25'0 0.0
2015-Jan-17 09:32N 27°48' W 082°25'0 0.0
2015-Jan-17 08:29N 27°48' W 082°25'0 0.0
2015-Jan-17 07:31N 27°48' W 082°25'0 0.0
2015-Jan-17 06:32N 27°48' W 082°25'0 0.0
2015-Jan-17 05:29N 27°48' W 082°25'0 0.0
2015-Jan-17 04:31N 27°48' W 082°25'0 0.0
2015-Jan-17 03:28N 27°48' W 082°25'0 0.0
2015-Jan-17 02:28N 27°48' W 082°25'0 0.0
2015-Jan-17 01:31N 27°48' W 082°25'0 0.0
2015-Jan-17 00:28N 27°48' W 082°25'0 0.0
2015-Jan-16 23:28N 27°48' W 082°25'1 0.7
2015-Jan-16 22:33N 27°48' W 082°25'4 3.9
2015-Jan-16 21:33N 27°48' W 082°29'9 8.3
2015-Jan-16 20:27N 27°40' W 082°35'19 1.2
2015-Jan-16 04:19N 27°37' W 082°56'4 0.4
2015-Jan-15 19:21N 27°36' W 083°00'  

Dump ship's entire track history